Time;durP1;ratioP1;P1;durP2;ratioP2;P2;SDS_P1;SDS_P2;PMS_P1;PMS_P2;Temp;Humidity;BMP_temperature;BMP_pressure;BME280_temperature;BME280_humidity;BME280_pressure;Samples;Min_cycle;Max_cycle;Signal;HPM_P1;HPM_P2
2022/02/25 00:00:06;;;;;;;32.75;15.93;;;;;;;-1.06;100.00;97935.56;5022058;28;20156;-90
2022/02/25 00:02:32;;;;;;;37.70;18.05;;;;;;;-1.05;100.00;97931.19;5031789;28;20026;-91
2022/02/25 00:04:58;;;;;;;40.78;19.13;;;;;;;-1.02;100.00;97926.78;5035661;28;20071;-91
2022/02/25 00:07:23;;;;;;;35.20;18.20;;;;;;;-1.03;100.00;97932.91;5027806;28;20033;-91
2022/02/25 00:09:49;;;;;;;32.80;17.75;;;;;;;-1.04;100.00;97923.28;5011082;28;20133;-92
2022/02/25 00:12:15;;;;;;;43.28;19.58;;;;;;;-1.10;100.00;97925.97;5033952;28;20519;-90
2022/02/25 00:14:40;;;;;;;45.75;20.17;;;;;;;-1.14;100.00;97919.03;5042068;28;20054;-91
2022/02/25 00:17:06;;;;;;;45.65;21.95;;;;;;;-1.20;100.00;97905.97;5024393;28;20050;-91
2022/02/25 00:19:31;;;;;;;42.60;20.25;;;;;;;-1.21;100.00;97910.34;5025873;28;20029;-92
2022/02/25 00:21:57;;;;;;;44.67;18.23;;;;;;;-1.04;100.00;97932.91;5003926;28;20014;-91
2022/02/25 00:24:22;;;;;;;42.75;20.23;;;;;;;-1.13;100.00;97923.38;5038431;28;20040;-91
2022/02/25 00:27:00;;;;;;;35.42;17.60;;;;;;;-1.15;100.00;97914.66;5028708;28;20037;-91
2022/02/25 00:29:26;;;;;;;38.97;18.58;;;;;;;-1.13;100.00;97918.13;5029509;28;20143;-90
2022/02/25 00:31:51;;;;;;;33.80;16.52;;;;;;;-1.29;100.00;97906.06;5021162;28;20030;-92
2022/02/25 00:34:17;;;;;;;30.15;16.17;;;;;;;-1.31;100.00;97928.81;5026545;28;20036;-92
2022/02/25 00:36:43;;;;;;;29.13;14.63;;;;;;;-1.40;100.00;97910.53;5019208;28;20033;-91
2022/02/25 00:39:08;;;;;;;33.55;17.30;;;;;;;-1.41;100.00;97900.91;5046003;28;20067;-91
2022/02/25 00:41:34;;;;;;;35.20;16.25;;;;;;;-1.43;100.00;97898.31;5055491;28;20456;-92
2022/02/25 00:44:30;;;;;;;33.90;15.93;;;;;;;-1.28;100.00;97905.16;5029190;28;20052;-91
2022/02/25 00:46:56;;;;;;;33.17;16.73;;;;;;;-1.32;100.00;97895.56;5053497;28;20053;-91
2022/02/25 00:49:21;;;;;;;37.40;17.73;;;;;;;-1.24;100.00;97899.88;5039168;28;20025;-92
2022/02/25 00:51:47;;;;;;;35.72;18.02;;;;;;;-1.21;100.00;97893.72;5038087;28;20433;-91
2022/02/25 00:54:13;;;;;;;37.58;18.50;;;;;;;-1.26;100.00;97891.13;5022502;28;20021;-92
2022/02/25 00:56:38;;;;;;;34.47;16.38;;;;;;;-1.34;100.00;97881.63;5041003;28;20037;-91
2022/02/25 00:59:04;;;;;;;33.70;17.42;;;;;;;-1.35;100.00;97879.88;5035350;28;20040;-91
2022/02/25 01:01:29;;;;;;;36.47;17.55;;;;;;;-1.27;100.00;97878.06;5028797;28;20032;-93
2022/02/25 01:03:55;;;;;;;36.38;18.77;;;;;;;-1.24;100.00;97881.53;5020801;28;20033;-93
2022/02/25 01:06:20;;;;;;;35.25;17.52;;;;;;;-1.29;100.00;97864.09;5033979;28;20208;-91
2022/02/25 01:08:46;;;;;;;39.35;18.27;;;;;;;-1.28;100.00;97871.06;5033900;28;20035;-91
2022/02/25 01:11:11;;;;;;;31.13;17.98;;;;;;;-1.27;100.00;97884.19;5020695;28;20462;-92
2022/02/25 01:13:37;;;;;;;36.53;19.10;;;;;;;-1.30;100.00;97875.47;5031200;28;20032;-92
2022/02/25 01:16:03;;;;;;;37.15;19.35;;;;;;;-1.31;100.00;97871.97;5037852;28;20060;-93
2022/02/25 01:18:28;;;;;;;34.50;17.67;;;;;;;-1.48;100.00;97862.53;5021304;28;20477;-92
2022/02/25 01:20:54;;;;;;;39.63;18.08;;;;;;;-1.46;100.00;97871.25;5038365;28;20034;-92
2022/02/25 01:23:20;;;;;;;36.33;17.33;;;;;;;-1.44;100.00;97869.47;5035244;28;20096;-93
2022/02/25 01:25:45;;;;;;;37.03;16.98;;;;;;;-1.47;100.00;97861.63;5036777;28;20100;-92
2022/02/25 01:28:11;;;;;;;37.50;18.02;;;;;;;-1.50;100.00;97859.91;5022855;28;20033;-91
2022/02/25 01:30:37;;;;;;;35.35;17.38;;;;;;;-1.50;100.00;97861.66;5024953;28;20080;-93
2022/02/25 01:33:02;;;;;;;42.35;20.58;;;;;;;-1.54;100.00;97857.34;5037825;28;20068;-92
2022/02/25 01:35:28;;;;;;;48.28;20.80;;;;;;;-1.53;100.00;97861.69;5021192;28;20029;-92
2022/02/25 01:37:53;;;;;;;52.15;22.63;;;;;;;-1.56;100.00;97864.34;5020484;28;20021;-93
2022/02/25 01:40:19;;;;;;;54.10;23.48;;;;;;;-1.65;100.00;97860.94;5003901;28;20048;-92
2022/02/25 01:42:52;;;;;;;51.08;22.73;;;;;;;-1.74;100.00;97855.78;5020539;28;20373;-92
2022/02/25 01:45:19;;;;;;;47.72;21.90;;;;;;;-1.63;100.00;97852.19;5028875;28;20029;-93
2022/02/25 01:47:45;;;;;;;39.85;18.77;;;;;;;-1.69;100.00;97843.47;5028820;28;20038;-92
2022/02/25 01:50:11;;;;;;;32.95;16.48;;;;;;;-1.75;100.00;97851.41;5021206;28;20040;-92
2022/02/25 01:52:37;;;;;;;38.83;17.98;;;;;;;-1.76;100.00;97848.81;5038188;28;20495;-93
2022/02/25 01:55:03;;;;;;;38.80;19.00;;;;;;;-1.78;100.00;97848.81;5030182;28;20040;-92
2022/02/25 01:57:29;;;;;;;33.78;17.30;;;;;;;-1.77;100.00;97834.81;5020530;28;20041;-92
2022/02/25 01:59:54;;;;;;;43.95;18.38;;;;;;;-1.87;100.00;97835.78;5004077;28;20151;-93
2022/02/25 02:02:20;;;;;;;39.63;18.58;;;;;;;-1.85;100.00;97835.78;5023915;28;20096;-93
2022/02/25 02:04:45;;;;;;;43.95;18.45;;;;;;;-1.88;100.00;97833.19;5036576;28;20021;-91
2022/02/25 02:07:11;;;;;;;49.10;18.13;;;;;;;-1.85;100.00;97836.66;5038716;28;20021;-91
2022/02/25 02:09:36;;;;;;;34.72;17.15;;;;;;;-1.81;100.00;97827.88;5039602;28;20016;-91
2022/02/25 02:12:04;;;;;;;32.90;17.27;;;;;;;-1.77;100.00;97831.31;5034357;28;20021;-91
2022/02/25 02:14:29;;;;;;;35.92;15.18;;;;;;;-1.89;100.00;97813.97;5045441;28;20096;-93
2022/02/25 02:16:57;;;;;;;31.48;14.95;;;;;;;-1.88;100.00;97820.97;5039701;28;20059;-91
2022/02/25 02:19:23;;;;;;;28.60;14.35;;;;;;;-1.82;100.00;97830.50;5009269;28;20120;-92
2022/02/25 02:21:53;;;;;;;33.95;15.00;;;;;;;-1.91;100.00;97805.25;5025415;28;20063;-92
2022/02/25 02:24:21;;;;;;;31.63;14.73;;;;;;;-1.75;100.00;97829.56;5026509;28;20040;-91
2022/02/25 02:26:48;;;;;;;29.20;14.07;;;;;;;-1.97;100.00;97807.91;5024108;28;20053;-92
2022/02/25 02:29:14;;;;;;;25.02;13.50;;;;;;;-1.84;100.00;97833.13;5024280;28;20036;-91
2022/02/25 02:31:40;;;;;;;27.83;14.20;;;;;;;-1.78;100.00;97816.47;5035266;28;20025;-92
2022/02/25 02:34:07;;;;;;;31.65;14.85;;;;;;;-1.83;100.00;97813.91;5026713;28;20036;-92
2022/02/25 02:36:33;;;;;;;31.02;14.65;;;;;;;-1.95;100.00;97805.28;5044783;28;20492;-93
2022/02/25 02:38:59;;;;;;;32.67;15.38;;;;;;;-1.94;100.00;97810.53;5036260;28;20032;-91
2022/02/25 02:41:25;;;;;;;41.33;18.58;;;;;;;-1.97;100.00;97805.28;5043025;28;20416;-90
2022/02/25 02:43:51;;;;;;;48.97;20.75;;;;;;;-1.97;100.00;97797.41;5014948;28;20177;-92
2022/02/25 02:46:16;;;;;;;46.67;18.95;;;;;;;-2.12;100.00;97794.94;5032212;28;20087;-91
2022/02/25 02:48:42;;;;;;;41.72;18.98;;;;;;;-2.07;100.00;97806.28;5028462;28;20075;-90
2022/02/25 02:51:09;;;;;;;48.53;20.67;;;;;;;-2.03;100.00;97794.00;5036336;28;20028;-91
2022/02/25 02:53:35;;;;;;;39.70;16.70;;;;;;;-2.02;100.00;97795.72;5031212;28;20493;-90
2022/02/25 02:56:02;;;;;;;34.60;15.32;;;;;;;-2.03;100.00;97800.09;5043313;28;20056;-93
2022/02/25 02:58:27;;;;;;;49.35;19.05;;;;;;;-1.97;100.00;97805.28;5045386;28;20119;-92
2022/02/25 03:00:53;;;;;;;33.47;16.42;;;;;;;-1.96;100.00;97812.28;5046909;28;20063;-92
2022/02/25 03:03:19;;;;;;;38.40;17.55;;;;;;;-2.12;100.00;97792.31;5040145;28;20134;-75
2022/02/25 03:05:46;;;;;;;45.00;17.90;;;;;;;-2.13;100.00;97793.22;5059224;28;20115;-92
2022/02/25 03:08:12;;;;;;;34.03;16.58;;;;;;;-2.09;100.00;97799.31;5031210;28;20081;-92
2022/02/25 03:10:39;;;;;;;38.70;16.73;;;;;;;-2.24;100.00;97782.81;5032728;28;20060;-93
2022/02/25 03:13:05;;;;;;;39.38;16.90;;;;;;;-2.28;100.00;97780.25;5041016;28;20120;-92
2022/02/25 03:15:31;;;;;;;38.00;17.10;;;;;;;-2.17;100.00;97808.97;5027394;28;20036;-93
2022/02/25 03:17:57;;;;;;;47.35;22.30;;;;;;;-2.37;100.00;97772.47;5028523;28;20021;-93
2022/02/25 03:20:23;;;;;;;45.53;22.20;;;;;;;-2.18;100.00;97792.38;5033264;28;20035;-93
2022/02/25 03:22:55;;;;;;;46.63;22.20;;;;;;;-2.38;100.00;97776.84;5047506;28;20152;-92
2022/02/25 03:25:21;;;;;;;41.95;21.10;;;;;;;-2.44;100.00;97765.53;5024808;28;20111;-92
2022/02/25 03:27:47;;;;;;;40.00;19.88;;;;;;;-2.40;100.00;97785.59;5041660;28;20564;-91
2022/02/25 03:30:14;;;;;;;41.95;18.90;;;;;;;-2.47;100.00;97778.66;5036911;28;20100;-92
2022/02/25 03:32:42;;;;;;;47.63;17.33;;;;;;;-2.52;100.00;97783.91;5042452;28;20033;-92
2022/02/25 03:35:09;;;;;;;31.00;15.25;;;;;;;-2.42;100.00;97800.41;5025616;28;20112;-92
2022/02/25 03:37:34;;;;;;;30.17;15.10;;;;;;;-2.41;100.00;97796.94;5024448;28;20071;-93
2022/02/25 03:40:00;;;;;;;33.95;16.13;;;;;;;-2.28;100.00;97806.44;5027975;28;20099;-92
2022/02/25 03:42:26;;;;;;;36.85;17.38;;;;;;;-2.37;100.00;97798.66;5044180;28;20054;-90
2022/02/25 03:44:51;;;;;;;30.42;15.95;;;;;;;-2.40;100.00;97796.91;5042973;28;20033;-93
2022/02/25 03:47:17;;;;;;;45.85;20.98;;;;;;;-2.41;100.00;97789.06;5045900;28;20076;-93
2022/02/25 03:49:43;;;;;;;54.60;24.23;;;;;;;-2.24;100.00;97803.78;5044690;28;20033;-92
2022/02/25 03:52:09;;;;;;;45.28;21.40;;;;;;;-2.31;100.00;97809.09;5045438;28;20051;-93
2022/02/25 03:54:34;;;;;;;54.78;22.60;;;;;;;-2.33;100.00;97816.06;5044593;28;20499;-92
2022/02/25 03:57:00;;;;;;;60.85;26.02;;;;;;;-2.39;100.00;97805.63;5061459;28;20157;-93
2022/02/25 03:59:26;;;;;;;52.70;23.50;;;;;;;-2.48;100.00;97801.34;5043854;28;20033;-91
2022/02/25 04:01:52;;;;;;;47.28;23.65;;;;;;;-2.49;100.00;97811.84;5037141;28;20544;-90
2022/02/25 04:04:23;;;;;;;42.15;19.83;;;;;;;-2.49;100.00;97822.31;5039739;28;20033;-93
2022/02/25 04:06:49;;;;;;;44.20;20.40;;;;;;;-2.60;100.00;97817.13;5034902;28;20520;-92
2022/02/25 04:09:18;;;;;;;39.47;18.40;;;;;;;-2.67;100.00;97819.78;5040166;28;20464;-93
2022/02/25 04:11:49;;;;;;;41.03;19.88;;;;;;;-2.71;100.00;97818.06;5040717;28;20024;-92
2022/02/25 04:14:14;;;;;;;34.55;15.60;;;;;;;-2.78;100.00;97828.56;5044317;28;20024;-91
2022/02/25 04:16:43;;;;;;;39.63;18.30;;;;;;;-2.82;100.00;97821.63;5042234;28;20032;-92
2022/02/25 04:19:08;;;;;;;30.08;14.82;;;;;;;-2.77;100.00;97811.97;5024028;28;20516;-91
2022/02/25 04:21:34;;;;;;;33.13;15.88;;;;;;;-2.65;100.00;97823.28;5023210;28;20039;-91
2022/02/25 04:24:00;;;;;;;38.17;13.90;;;;;;;-2.72;100.00;97811.09;5035768;28;20056;-90
2022/02/25 04:26:26;;;;;;;40.35;15.43;;;;;;;-2.78;100.00;97812.88;5040497;28;20070;-91
2022/02/25 04:28:52;;;;;;;37.17;15.25;;;;;;;-2.81;100.00;97805.03;5043670;28;20085;-92
2022/02/25 04:31:18;;;;;;;41.80;18.08;;;;;;;-2.74;100.00;97809.34;5050781;28;20170;-91
2022/02/25 04:33:45;;;;;;;53.20;21.48;;;;;;;-2.83;100.00;97800.69;5039871;28;20124;-91
2022/02/25 04:36:10;;;;;;;47.20;18.52;;;;;;;-2.78;100.00;97806.78;5036296;28;20028;-89
2022/02/25 04:38:36;;;;;;;47.53;17.27;;;;;;;-2.84;100.00;97805.06;5025130;28;20062;-89
2022/02/25 04:41:02;;;;;;;42.60;17.65;;;;;;;-2.85;100.00;97818.13;5028125;28;20071;-90
2022/02/25 04:43:31;;;;;;;49.15;21.13;;;;;;;-2.79;100.00;97818.09;5030654;28;20037;-90
2022/02/25 04:45:58;;;;;;;46.55;19.77;;;;;;;-2.79;100.00;97805.91;5048370;28;20041;-91
2022/02/25 04:48:26;;;;;;;51.80;19.10;;;;;;;-2.80;100.00;97798.91;5047106;28;20028;-93
2022/02/25 04:50:53;;;;;;;54.05;19.52;;;;;;;-2.83;100.00;97795.47;5047933;28;20399;-93
2022/02/25 04:53:20;;;;;;;53.75;25.00;;;;;;;-2.95;100.00;97761.50;5063242;28;20024;-93
2022/02/25 04:55:46;;;;;;;64.65;26.67;;;;;;;-2.82;100.00;97778.88;5047859;28;20028;-92
2022/02/25 04:58:16;;;;;;;63.67;27.60;;;;;;;-2.76;100.00;97789.28;5048109;28;20082;-91
2022/02/25 05:00:45;;;;;;;61.90;28.23;;;;;;;-2.82;100.00;97797.19;5049898;28;20067;-93
2022/02/25 05:03:21;;;;;;;91.78;37.55;;;;;;;-2.95;100.00;97783.28;5052465;28;20033;-91
2022/02/25 05:05:47;;;;;;;121.22;52.75;;;;;;;-2.89;100.00;97782.41;5038392;28;20025;-91
2022/02/25 05:08:15;;;;;;;75.72;34.38;;;;;;;-2.71;100.00;97812.84;5036786;28;20035;-92
2022/02/25 05:10:41;;;;;;;77.72;31.13;;;;;;;-2.90;100.00;97783.28;5048352;28;20013;-90
2022/02/25 05:13:06;;;;;;;76.63;33.25;;;;;;;-2.84;100.00;97804.19;5039422;28;20032;-90
2022/02/25 05:21:00;;;;;;;66.63;29.17;;;;;;;-2.91;100.00;97763.22;5045170;28;20039;-93
2022/02/25 05:23:25;;;;;;;70.65;29.63;;;;;;;-2.81;100.00;97785.84;5037747;28;20505;-93
2022/02/25 05:25:51;;;;;;;59.60;26.48;;;;;;;-2.96;100.00;97758.03;5053698;28;20055;-92
2022/02/25 05:28:17;;;;;;;50.28;24.58;;;;;;;-2.79;100.00;97773.63;5047870;28;20028;-88
2022/02/25 05:30:43;;;;;;;57.88;25.17;;;;;;;-2.77;100.00;97772.72;5048397;28;20024;-91
2022/02/25 05:33:08;;;;;;;46.92;22.85;;;;;;;-2.46;100.00;97791.72;5040831;28;20029;-90
2022/02/25 05:35:34;;;;;;;66.35;31.98;;;;;;;-2.26;100.00;97802.94;5025946;28;20029;-91
2022/02/25 05:38:00;;;;;;;69.07;30.83;;;;;;;-2.21;100.00;97787.16;5041893;28;20016;-91
2022/02/25 05:40:26;;;;;;;51.53;28.08;;;;;;;-2.10;100.00;97787.09;5031081;28;20032;-87
2022/02/25 05:42:52;;;;;;;74.63;35.42;;;;;;;-1.86;100.00;97772.00;5036981;28;20032;-88
2022/02/25 05:45:18;;;;;;;51.88;24.27;;;;;;;-1.45;100.00;97740.09;5030366;28;20028;-87
2022/02/25 05:47:44;;;;;;;59.28;27.80;;;;;;;-1.39;100.00;97744.41;5039142;28;20041;-87
2022/02/25 05:50:13;;;;;;;89.30;39.85;;;;;;;-0.87;100.00;97807.59;5025231;28;20021;-85
2022/02/25 05:52:40;;;;;;;98.20;42.35;;;;;;;-0.59;100.00;97811.59;5037104;28;20836;-87
2022/02/25 05:55:06;;;;;;;104.43;48.45;;;;;;;-0.53;100.00;97803.63;5034097;28;20032;-87
2022/02/25 05:57:32;;;;;;;106.78;48.55;;;;;;;-0.35;100.00;97815.63;5031482;28;20022;-87
2022/02/25 05:59:57;;;;;;;90.07;40.78;;;;;;;0.75;100.00;97795.31;5031487;28;20025;-88
2022/02/25 06:02:23;;;;;;;76.97;36.05;;;;;;;2.57;87.38;97801.66;5023812;28;20057;-88
2022/02/25 06:13:00;;;;;;;72.85;30.65;;;;;;;6.74;57.58;97684.31;5389570;22;20053;-90
2022/02/25 06:15:26;;;;;;;73.65;31.58;;;;;;;8.73;51.22;97719.03;5037780;28;20037;-91
2022/02/25 06:17:52;;;;;;;76.93;38.83;;;;;;;9.90;47.08;97701.94;5042982;28;20106;-92
2022/02/25 06:20:19;;;;;;;72.95;36.13;;;;;;;10.30;46.03;97746.84;5048348;28;20028;-88
2022/02/25 06:22:48;;;;;;;65.10;32.92;;;;;;;9.46;45.97;97669.69;5048504;28;20085;-90
2022/02/25 06:25:14;;;;;;;68.38;35.08;;;;;;;10.17;45.82;97754.69;5037386;28;20045;-90
2022/02/25 06:27:46;;;;;;;77.97;40.95;;;;;;;9.36;46.30;97706.72;5052519;28;20096;-89
2022/02/25 06:30:17;;;;;;;115.90;50.42;;;;;;;9.42;46.73;97742.88;5089892;28;20051;-92
2022/02/25 06:32:43;;;;;;;109.97;49.38;;;;;;;8.52;48.44;97744.13;5041649;28;20025;-91
2022/02/25 06:35:09;;;;;;;167.82;71.50;;;;;;;9.13;47.43;97713.31;5039593;28;20035;-92
2022/02/25 06:37:36;;;;;;;185.38;82.40;;;;;;;10.17;45.79;97745.81;5012210;28;20065;-89
2022/02/25 06:40:02;;;;;;;118.03;54.55;;;;;;;10.30;45.12;97715.59;5011255;28;20022;-92
2022/02/25 06:42:28;;;;;;;97.45;48.88;;;;;;;10.03;44.47;97671.72;5008214;28;20033;-91
2022/02/25 06:44:57;;;;;;;104.93;55.13;;;;;;;10.21;44.24;97660.00;5016428;28;20022;-92
2022/02/25 06:47:23;;;;;;;149.38;76.20;;;;;;;10.78;43.83;97697.59;5029681;28;20048;-91
2022/02/25 06:49:48;;;;;;;94.60;47.30;;;;;;;10.66;44.33;97743.81;5040032;28;20047;-90
2022/02/25 06:52:14;;;;;;;82.57;43.65;;;;;;;10.51;44.54;97721.53;5035852;28;20037;-90
2022/02/25 06:54:41;;;;;;;90.75;43.78;;;;;;;10.70;44.52;97732.00;5042994;28;20038;-92
2022/02/25 06:57:06;;;;;;;72.78;34.13;;;;;;;11.15;43.94;97720.31;5043450;28;20033;-91
2022/02/25 06:59:34;;;;;;;55.42;27.80;;;;;;;11.48;43.40;97736.09;5045520;28;20404;-91
2022/02/25 07:02:00;;;;;;;54.25;28.02;;;;;;;10.48;44.68;97735.06;5037788;28;20024;-89
2022/02/25 07:04:25;;;;;;;47.38;26.20;;;;;;;11.13;44.47;97741.84;5038369;28;20055;-91
2022/02/25 07:06:54;;;;;;;49.75;25.33;;;;;;;12.11;42.25;97737.41;5023976;28;20098;-82
2022/02/25 07:09:19;;;;;;;47.05;25.80;;;;;;;11.57;42.85;97740.88;5034173;28;20112;-81
2022/02/25 07:11:46;;;;;;;46.83;24.20;;;;;;;11.55;43.37;97748.16;5032643;28;20539;-81
2022/02/25 07:14:12;;;;;;;46.58;23.65;;;;;;;12.40;42.01;97738.16;5017028;28;20102;-82
2022/02/25 07:16:37;;;;;;;35.75;21.42;;;;;;;11.31;43.59;97740.72;5019846;28;20024;-81
2022/02/25 07:19:03;;;;;;;37.65;22.10;;;;;;;10.92;44.83;97748.47;5020228;28;20043;-82
2022/02/25 07:21:29;;;;;;;32.35;16.63;;;;;;;11.30;43.33;97741.66;5020045;28;20111;-81
2022/02/25 07:23:54;;;;;;;34.22;18.70;;;;;;;11.71;42.44;97727.53;5024214;28;20028;-81
2022/02/25 07:26:20;;;;;;;38.80;21.48;;;;;;;12.22;43.04;97739.38;5039654;28;20032;-81
2022/02/25 07:28:46;;;;;;;35.38;16.70;;;;;;;12.17;42.40;97726.28;5039058;28;20036;-82
2022/02/25 07:31:11;;;;;;;22.55;13.63;;;;;;;12.33;41.03;97721.63;5039863;28;20020;-81
2022/02/25 07:33:37;;;;;;;31.40;19.52;;;;;;;13.00;40.13;97730.50;5039809;28;20506;-82
2022/02/25 07:36:03;;;;;;;42.75;26.67;;;;;;;13.42;39.02;97713.25;5039503;28;20032;-81
2022/02/25 07:38:29;;;;;;;30.35;17.48;;;;;;;13.86;38.34;97700.19;5040167;28;20016;-82
2022/02/25 07:40:54;;;;;;;30.02;17.80;;;;;;;14.76;37.16;97701.56;5039980;28;20111;-81
2022/02/25 07:43:20;;;;;;;148.00;84.30;;;;;;;15.60;35.82;97692.16;5039462;28;20056;-81
2022/02/25 07:45:49;;;;;;;38.72;21.05;;;;;;;14.70;37.19;97693.94;5055944;28;20025;-81
2022/02/25 07:48:16;;;;;;;37.30;23.08;;;;;;;14.06;38.28;97704.06;5055788;28;20420;-82
2022/02/25 07:50:42;;;;;;;43.20;22.95;;;;;;;14.00;38.34;97688.38;5036942;28;20024;-82
2022/02/25 07:53:08;;;;;;;30.95;20.42;;;;;;;13.91;38.68;97699.81;5019388;28;20024;-82
2022/02/25 07:55:34;;;;;;;38.60;22.40;;;;;;;14.45;37.73;97698.50;5019446;28;20017;-81
2022/02/25 07:58:00;;;;;;;46.28;24.35;;;;;;;14.59;37.16;97695.59;5019449;28;20548;-81
2022/02/25 08:00:25;;;;;;;44.17;25.92;;;;;;;14.23;37.85;97698.34;5019433;28;20025;-82
2022/02/25 08:05:36;;;;;;;63.45;34.17;;;;;;;15.13;37.82;97695.03;5038693;28;20520;-81
2022/02/25 08:08:04;;;;;;;56.97;33.38;;;;;;;14.71;38.34;97677.66;5019485;28;20031;-82
2022/02/25 08:10:32;;;;;;;62.90;34.47;;;;;;;15.30;37.58;97688.31;5019103;28;20027;-81
2022/02/25 08:12:58;;;;;;;73.30;37.53;;;;;;;14.76;37.91;97651.25;5015748;28;20079;-82
2022/02/25 08:15:24;;;;;;;70.95;35.67;;;;;;;14.59;38.54;97686.66;5015678;28;20052;-82
2022/02/25 08:17:49;;;;;;;57.20;31.98;;;;;;;15.80;36.71;97681.63;4999552;28;20021;-82
2022/02/25 08:20:15;;;;;;;42.70;26.08;;;;;;;16.32;35.72;97679.09;5015564;28;20031;-82
2022/02/25 08:22:41;;;;;;;35.70;24.70;;;;;;;15.05;37.65;97675.91;5015837;28;20441;-82
2022/02/25 08:25:23;;;;;;;53.35;29.35;;;;;;;16.03;36.29;97686.88;5015537;28;20017;-82
2022/02/25 08:27:49;;;;;;;39.50;23.95;;;;;;;16.40;35.39;97665.78;5031288;28;20030;-82
2022/02/25 08:30:15;;;;;;;46.08;26.85;;;;;;;15.77;36.36;97671.09;5015569;28;20033;-82
2022/02/25 08:32:43;;;;;;;41.80;24.40;;;;;;;15.32;37.40;97681.81;5015406;28;20104;-82
2022/02/25 08:35:09;;;;;;;37.83;22.40;;;;;;;15.74;36.61;97683.00;5015314;28;20439;-83
2022/02/25 08:37:36;;;;;;;42.90;22.27;;;;;;;16.25;36.29;97684.13;5015472;28;20049;-82
2022/02/25 08:40:03;;;;;;;37.22;20.80;;;;;;;16.86;34.59;97686.28;5018906;28;20029;-83
2022/02/25 08:42:30;;;;;;;38.65;21.67;;;;;;;16.50;35.06;97677.53;5034874;28;20029;-82
2022/02/25 08:44:56;;;;;;;33.70;21.23;;;;;;;15.35;36.49;97680.75;5034592;28;20091;-81
2022/02/25 08:47:22;;;;;;;30.70;20.55;;;;;;;14.69;37.30;97660.75;5034788;28;20032;-82
2022/02/25 08:53:02;;;;;;;36.60;22.55;;;;;;;16.54;35.05;97668.25;5052992;28;20031;-81
2022/02/25 08:55:28;;;;;;;38.92;22.77;;;;;;;17.01;33.92;97655.25;5034893;28;20029;-82
2022/02/25 08:57:54;;;;;;;40.08;22.83;;;;;;;17.42;33.53;97657.03;5016298;28;20039;-82
2022/02/25 09:00:22;;;;;;;38.25;22.67;;;;;;;17.19;34.14;97645.53;5031302;28;20033;-81
2022/02/25 09:02:49;;;;;;;39.08;22.33;;;;;;;17.32;33.73;97640.75;5014599;28;20032;-82
2022/02/25 09:05:16;;;;;;;38.75;22.92;;;;;;;17.79;33.07;97628.47;5014733;28;20120;-81
2022/02/25 09:07:42;;;;;;;37.15;22.70;;;;;;;18.55;31.58;97610.69;5014706;28;20044;-81
2022/02/25 09:10:09;;;;;;;75.75;40.72;;;;;;;19.29;30.81;97614.38;5031043;28;20030;-81
2022/02/25 09:12:36;;;;;;;43.30;26.50;;;;;;;19.36;30.46;97607.38;5014287;28;20143;-83
2022/02/25 09:15:07;;;;;;;37.60;23.17;;;;;;;18.34;31.15;97602.63;5032760;28;20032;-81
2022/02/25 09:17:32;;;;;;;46.17;26.20;;;;;;;17.43;32.52;97612.78;5033740;28;20017;-82
2022/02/25 09:19:58;;;;;;;34.47;20.95;;;;;;;16.81;32.84;97611.00;5033854;28;20069;-82
2022/02/25 09:22:24;;;;;;;33.83;20.80;;;;;;;17.34;32.55;97609.03;5034562;28;20036;-81
2022/02/25 09:24:50;;;;;;;42.92;21.42;;;;;;;18.42;31.18;97598.25;5016836;28;20041;-83
2022/02/25 09:27:15;;;;;;;34.20;20.70;;;;;;;19.57;29.59;97597.19;5030689;28;20036;-82
2022/02/25 09:29:41;;;;;;;38.53;24.23;;;;;;;20.12;28.98;97581.72;5014232;28;20029;-82
2022/02/25 09:32:07;;;;;;;37.40;21.45;;;;;;;17.25;31.42;97590.94;5014123;28;20518;-82
2022/02/25 09:34:33;;;;;;;32.92;19.50;;;;;;;17.33;30.55;97577.56;5030845;28;20084;-82
2022/02/25 09:36:59;;;;;;;41.95;19.52;;;;;;;18.00;30.71;97568.81;5014158;28;20033;-82
2022/02/25 09:39:25;;;;;;;30.30;18.33;;;;;;;18.85;30.06;97567.13;4997070;28;20044;-82
2022/02/25 09:41:51;;;;;;;27.65;18.30;;;;;;;19.35;28.35;97563.13;5014050;28;20116;-83
2022/02/25 09:44:17;;;;;;;23.80;16.13;;;;;;;20.11;26.18;97533.00;5014135;28;20187;-83
2022/02/25 09:46:46;;;;;;;36.80;19.90;;;;;;;20.34;26.50;97545.13;5014071;28;20040;-83
2022/02/25 09:49:13;;;;;;;25.88;15.55;;;;;;;20.08;25.52;97520.59;5017379;28;20476;-82
2022/02/25 09:51:39;;;;;;;25.63;14.98;;;;;;;19.39;26.21;97522.97;5033704;28;20578;-83
2022/02/25 09:54:06;;;;;;;27.48;16.90;;;;;;;19.74;26.26;97528.53;5033720;28;20051;-84
2022/02/25 09:56:33;;;;;;;35.00;18.35;;;;;;;20.09;25.85;97524.16;5034079;28;20500;-83
2022/02/25 09:58:59;;;;;;;21.35;11.23;;;;;;;18.61;26.43;97510.69;5050363;28;20198;-83
2022/02/25 10:01:33;;;;;;;13.98;6.53;;;;;;;19.45;25.21;97511.56;5034121;28;20060;-82
2022/02/25 10:04:09;;;;;;;10.98;5.63;;;;;;;20.08;24.22;97506.16;5033384;28;20032;-81
2022/02/25 10:06:35;;;;;;;31.02;16.33;;;;;;;20.71;25.35;97501.44;5050533;28;20056;-83
2022/02/25 10:09:32;;;;;;;21.05;10.70;;;;;;;18.98;25.32;97494.44;5033593;28;20452;-82
2022/02/25 10:12:09;;;;;;;19.33;10.52;;;;;;;19.74;25.56;97495.97;5050144;28;20084;-83
2022/02/25 10:14:37;;;;;;;12.77;6.97;;;;;;;17.75;26.35;97484.47;5034135;28;20033;-82
2022/02/25 10:17:19;;;;;;;12.68;7.05;;;;;;;18.36;26.03;97490.44;5049914;28;20489;-82
2022/02/25 10:19:49;;;;;;;4.30;2.55;;;;;;;20.09;22.52;97467.13;5027233;28;20029;-82
2022/02/25 10:22:19;;;;;;;7.10;3.75;;;;;;;21.14;21.54;97446.16;5040633;28;20132;-83
2022/02/25 10:25:04;;;;;;;6.85;4.40;;;;;;;21.52;21.49;97445.63;5043925;28;20055;-83
2022/02/25 10:27:42;;;;;;;8.10;5.40;;;;;;;21.44;21.82;97445.63;5014839;28;20119;-82
2022/02/25 10:30:12;;;;;;;7.00;4.40;;;;;;;21.65;21.02;97437.84;5021810;28;20124;-81
2022/02/25 10:32:43;;;;;;;7.68;4.47;;;;;;;22.77;19.99;97432.63;5030107;28;20033;-83
2022/02/25 10:35:27;;;;;;;6.60;3.50;;;;;;;23.70;19.21;97424.47;5013331;28;20116;-82
2022/02/25 10:38:06;;;;;;;6.57;3.70;;;;;;;21.45;20.02;97406.47;5026861;28;20037;-75
2022/02/25 10:40:44;;;;;;;11.93;5.00;;;;;;;22.30;20.53;97416.16;5033794;28;20033;-77
2022/02/25 10:43:19;;;;;;;6.40;3.50;;;;;;;21.58;19.51;97404.13;5025914;28;20025;-75
2022/02/25 10:45:47;;;;;;;4.55;2.83;;;;;;;21.73;19.77;97407.91;5026291;28;20065;-77
2022/02/25 10:48:14;;;;;;;4.03;2.95;;;;;;;22.52;19.01;97404.53;5027299;28;20112;-76
2022/02/25 10:51:09;;;;;;;5.85;2.85;;;;;;;23.61;18.50;97402.81;5038581;28;20025;-75
2022/02/25 10:53:39;;;;;;;5.72;3.08;;;;;;;23.37;18.64;97392.00;5026268;28;20060;-76
2022/02/25 10:56:15;;;;;;;9.55;3.17;;;;;;;23.28;18.61;97387.63;5050081;28;20496;-76
2022/02/25 10:58:45;;;;;;;5.18;1.90;;;;;;;23.38;17.84;97380.06;5043011;28;20028;-75
2022/02/25 11:01:12;;;;;;;4.97;2.00;;;;;;;23.65;17.86;97379.59;5034262;28;20033;-76
2022/02/25 11:03:41;;;;;;;3.53;2.05;;;;;;;22.73;18.42;97371.28;5013565;28;20021;-76
2022/02/25 11:06:08;;;;;;;4.57;2.08;;;;;;;22.97;18.27;97361.16;5029776;28;20087;-75
2022/02/25 11:08:34;;;;;;;8.40;2.60;;;;;;;23.09;18.34;97364.34;5036393;28;20561;-75
2022/02/25 11:11:00;;;;;;;7.78;2.50;;;;;;;22.88;18.44;97366.81;5044747;28;20147;-76
2022/02/25 11:13:26;;;;;;;14.00;8.63;;;;;;;22.61;18.46;97355.25;5049139;28;20127;-75
2022/02/25 11:15:53;;;;;;;3.25;2.28;;;;;;;22.86;18.89;97366.13;5051539;28;20104;-76
2022/02/25 11:18:19;;;;;;;4.05;2.30;;;;;;;22.56;18.12;97352.22;5041659;28;20040;-77
2022/02/25 11:20:45;;;;;;;5.10;2.78;;;;;;;21.82;18.99;97351.56;5029049;28;20025;-76
2022/02/25 11:23:13;;;;;;;4.28;3.17;;;;;;;22.68;18.60;97341.81;5018653;28;20040;-76
2022/02/25 11:25:40;;;;;;;4.43;2.95;;;;;;;23.04;18.27;97328.56;5028576;28;20112;-75
2022/02/25 11:28:06;;;;;;;8.23;3.05;;;;;;;23.13;18.07;97336.50;5030888;28;20473;-76
2022/02/25 11:31:03;;;;;;;4.18;3.10;;;;;;;23.73;17.99;97330.34;5029159;28;20029;-75
2022/02/25 11:33:29;;;;;;;13.23;9.55;;;;;;;24.54;17.67;97318.72;5019508;28;20042;-76